createdAt,value
2018-07-19T00:02:10.501Z,14.70
2018-07-19T00:04:39.738Z,14.70
2018-07-19T00:07:08.963Z,14.70
2018-07-19T00:09:38.214Z,14.60
2018-07-19T00:12:07.718Z,14.60
2018-07-19T00:14:37.951Z,14.60
2018-07-19T00:17:07.422Z,14.70
2018-07-19T00:19:36.708Z,14.80
2018-07-19T00:22:06.025Z,14.80
2018-07-19T00:24:35.262Z,15.00
2018-07-19T00:27:04.546Z,15.00
2018-07-19T00:29:33.822Z,15.00
2018-07-19T00:32:03.047Z,14.80
2018-07-19T00:34:32.272Z,14.90
2018-07-19T00:37:01.503Z,14.90
2018-07-19T00:39:30.739Z,14.90
2018-07-19T00:42:00.059Z,14.90
2018-07-19T00:44:29.326Z,15.00
2018-07-19T00:46:58.627Z,14.90
2018-07-19T00:49:27.852Z,14.90
2018-07-19T00:51:57.144Z,14.90
2018-07-19T00:54:26.879Z,14.90
2018-07-19T00:56:56.126Z,15.00
2018-07-19T00:59:25.382Z,15.00
2018-07-19T01:01:54.616Z,15.00
2018-07-19T01:04:23.914Z,14.90
2018-07-19T01:06:53.196Z,14.90
2018-07-19T01:09:22.420Z,15.00
2018-07-19T01:11:51.680Z,15.00
2018-07-19T01:14:20.959Z,15.00
2018-07-19T01:16:50.202Z,14.90
2018-07-19T01:19:19.511Z,15.00
2018-07-19T01:21:48.784Z,14.90
2018-07-19T01:24:18.092Z,14.90
2018-07-19T01:26:47.331Z,14.80
2018-07-19T01:29:16.604Z,14.80
2018-07-19T01:31:45.848Z,14.80
2018-07-19T01:34:15.120Z,14.80
2018-07-19T01:36:44.424Z,14.80
2018-07-19T01:39:13.659Z,14.80
2018-07-19T01:42:20.707Z,14.90
2018-07-19T01:44:49.938Z,14.90
2018-07-19T06:25:57.976Z,19.90
2018-07-19T06:28:28.479Z,20.20
2018-07-19T06:30:58.061Z,20.40
2018-07-19T06:33:29.368Z,21.10
2018-07-19T06:35:59.361Z,21.60
2018-07-19T06:38:29.001Z,21.70
2018-07-19T06:41:06.146Z,21.60
2018-07-19T06:43:36.322Z,21.50
2018-07-19T06:46:06.138Z,22.10
2018-07-19T06:48:35.662Z,22.00
2018-07-19T06:51:05.356Z,22.10
2018-07-19T06:53:34.929Z,21.30
2018-07-19T06:56:04.487Z,21.30
2018-07-19T06:58:34.079Z,21.20
2018-07-19T07:01:03.710Z,22.10
2018-07-19T07:03:33.303Z,21.60
2018-07-19T07:06:02.884Z,21.90
2018-07-19T07:08:32.388Z,22.50
2018-07-19T07:11:01.916Z,22.90
2018-07-19T07:13:31.445Z,23.50
2018-07-19T07:16:01.049Z,23.20
2018-07-19T07:18:30.600Z,22.40
2018-07-19T07:21:00.825Z,21.60
2018-07-19T07:23:30.363Z,21.50
2018-07-19T07:26:00.768Z,21.30
2018-07-19T07:28:30.321Z,21.60
2018-07-19T07:31:00.450Z,22.20
2018-07-19T07:33:30.049Z,22.70
2018-07-19T07:36:00.556Z,23.50
2018-07-19T07:38:30.172Z,23.00
2018-07-19T07:41:00.053Z,23.10
2018-07-19T07:43:29.604Z,22.70
2018-07-19T07:45:59.603Z,23.30
2018-07-19T07:48:29.180Z,23.40
2018-07-19T07:50:58.764Z,23.40
2018-07-19T07:53:29.637Z,23.70
2018-07-19T07:55:59.482Z,23.70
2018-07-19T07:58:29.218Z,23.70
2018-07-19T08:00:58.793Z,24.40
2018-07-19T08:03:28.321Z,25.50
2018-07-19T08:06:04.181Z,25.00
2018-07-19T08:08:33.759Z,24.30
2018-07-19T08:11:04.116Z,23.90
2018-07-19T08:13:33.753Z,24.20
2018-07-19T08:16:03.856Z,25.70
2018-07-19T08:18:33.467Z,26.90
2018-07-19T08:21:03.309Z,27.20
2018-07-19T08:23:32.929Z,27.50
2018-07-19T08:26:03.016Z,25.40
2018-07-19T08:28:32.560Z,25.30
2018-07-19T08:31:02.678Z,24.70
2018-07-19T08:33:32.262Z,23.90
2018-07-19T08:36:02.499Z,23.70
2018-07-19T08:38:32.033Z,24.50
2018-07-19T08:41:01.573Z,25.40
2018-07-19T08:43:33.502Z,25.70
2018-07-19T08:46:03.911Z,25.80
2018-07-19T08:48:33.466Z,26.40
2018-07-19T08:51:03.634Z,26.60
2018-07-19T08:53:33.189Z,26.60
2018-07-19T08:56:03.288Z,26.60
2018-07-19T08:58:32.890Z,27.60
2018-07-19T09:01:02.913Z,27.70
2018-07-19T09:03:32.457Z,28.50
2018-07-19T09:06:02.256Z,28.90
2018-07-19T09:08:32.248Z,28.70
2018-07-19T09:11:01.864Z,28.50
2018-07-19T09:13:31.393Z,28.60
2018-07-19T09:16:00.976Z,29.10
2018-07-19T09:18:30.493Z,28.70
2018-07-19T09:21:00.065Z,29.60
2018-07-19T09:23:29.677Z,29.00
2018-07-19T09:25:59.212Z,29.10
2018-07-19T09:28:28.807Z,28.20
2018-07-19T09:30:58.427Z,28.80
2018-07-19T09:33:27.996Z,29.00
2018-07-19T09:35:57.561Z,29.70
2018-07-19T09:38:27.170Z,30.20
2018-07-19T09:40:56.680Z,29.00
2018-07-19T09:43:26.272Z,28.30
2018-07-19T09:45:55.991Z,29.30
2018-07-19T09:48:25.516Z,29.30
2018-07-19T09:50:55.069Z,29.30
2018-07-19T09:53:24.682Z,27.90
2018-07-19T09:55:54.194Z,29.40
2018-07-19T09:58:23.783Z,30.50
2018-07-19T10:00:58.510Z,29.80
2018-07-19T10:03:28.164Z,30.00
2018-07-19T10:05:57.717Z,30.60
2018-07-19T10:08:27.333Z,31.60
2018-07-19T10:10:56.872Z,31.50
2018-07-19T10:13:26.549Z,30.00
2018-07-19T10:15:56.084Z,29.40
2018-07-19T10:18:25.742Z,29.60
2018-07-19T10:20:55.390Z,29.20
2018-07-19T10:23:25.238Z,28.50
2018-07-19T10:25:54.949Z,29.50
2018-07-19T10:28:24.649Z,28.60
2018-07-19T10:30:54.168Z,29.40
2018-07-19T10:33:23.752Z,29.50
2018-07-19T10:35:53.469Z,29.70
2018-07-19T10:38:23.427Z,29.50
2018-07-19T10:40:53.064Z,30.80
2018-07-19T10:43:22.681Z,30.50
2018-07-19T10:45:52.412Z,30.40
2018-07-19T10:48:22.017Z,30.70
2018-07-19T10:50:52.540Z,30.40
2018-07-19T10:53:22.141Z,29.70
2018-07-19T10:55:51.693Z,30.40
2018-07-19T10:58:21.204Z,30.40
2018-07-19T11:00:50.805Z,29.00
2018-07-19T11:03:20.389Z,29.50
2018-07-19T11:05:49.941Z,30.10
2018-07-19T11:08:19.474Z,29.40
2018-07-19T11:10:49.032Z,28.50
2018-07-19T11:13:19.184Z,29.40
2018-07-19T11:15:48.716Z,30.10
2018-07-19T11:18:18.326Z,29.90
2018-07-19T11:20:48.873Z,29.20
2018-07-19T11:23:18.919Z,28.60
2018-07-19T11:25:48.576Z,28.10
2018-07-19T11:28:18.120Z,27.60
2018-07-19T11:30:48.008Z,28.30
2018-07-19T11:33:17.588Z,29.30
2018-07-19T11:35:47.160Z,30.80
2018-07-19T11:38:16.770Z,31.00
2018-07-19T11:40:46.381Z,31.80
2018-07-19T11:43:15.941Z,31.60
2018-07-19T11:45:45.542Z,31.10
2018-07-19T11:48:15.033Z,30.40
2018-07-19T11:50:44.688Z,29.50
2018-07-19T11:53:14.272Z,29.50
2018-07-19T11:55:43.833Z,29.40
2018-07-19T11:58:13.334Z,30.40
2018-07-19T12:00:42.907Z,30.50
2018-07-19T12:03:12.456Z,30.90
2018-07-19T12:05:41.985Z,30.30
2018-07-19T12:08:11.547Z,31.10
2018-07-19T12:10:41.076Z,31.40
2018-07-19T12:13:10.624Z,29.50
2018-07-19T12:15:40.264Z,28.50
2018-07-19T12:18:09.847Z,28.00
2018-07-19T12:20:39.505Z,27.60
2018-07-19T12:25:38.085Z,28.50
2018-07-19T12:28:07.647Z,28.40
2018-07-19T12:30:37.184Z,29.20
2018-07-19T12:33:06.778Z,30.20
2018-07-19T12:35:36.336Z,29.70
2018-07-19T12:38:05.892Z,29.20
2018-07-19T12:40:35.643Z,28.70
2018-07-19T12:43:05.248Z,28.70
2018-07-19T12:45:35.080Z,27.60
2018-07-19T12:48:04.739Z,28.90
2018-07-19T12:50:34.276Z,29.40
2018-07-19T12:53:03.860Z,29.20
2018-07-19T12:55:33.612Z,29.30
2018-07-19T12:58:03.173Z,29.40
2018-07-19T13:00:32.803Z,30.50
2018-07-19T13:03:02.385Z,32.00
2018-07-19T13:05:32.028Z,32.20
2018-07-19T13:08:01.542Z,32.20
2018-07-19T13:13:00.889Z,31.10
2018-07-19T13:15:31.822Z,31.40
2018-07-19T13:18:01.384Z,32.30
2018-07-19T13:20:31.345Z,30.40
2018-07-19T13:23:00.917Z,31.20
2018-07-19T13:25:30.948Z,31.30
2018-07-19T13:28:00.530Z,32.00
2018-07-19T13:30:30.405Z,31.80
2018-07-19T13:32:59.939Z,30.70
2018-07-19T13:35:30.817Z,30.70
2018-07-19T13:38:00.376Z,30.70
2018-07-19T13:40:30.743Z,30.50
2018-07-19T13:43:00.285Z,28.70
2018-07-19T13:47:58.993Z,28.60
2018-07-19T13:54:10.868Z,26.30
2018-07-19T14:09:10.348Z,27.30
2018-07-19T14:11:39.876Z,27.30
2018-07-19T14:14:09.528Z,27.60
2018-07-19T14:16:39.132Z,27.00
2018-07-19T14:19:08.684Z,27.30
2018-07-19T14:21:38.263Z,27.20
2018-07-19T14:24:07.905Z,27.20
2018-07-19T14:26:37.602Z,27.40
2018-07-19T14:29:07.236Z,26.90
2018-07-19T14:34:06.170Z,26.20
2018-07-19T14:39:22.266Z,27.20
2018-07-19T14:41:51.873Z,27.20
2018-07-19T14:44:21.700Z,27.30
2018-07-19T14:46:51.365Z,27.60
2018-07-19T14:49:20.948Z,27.50
2018-07-19T14:51:50.556Z,28.00
2018-07-19T14:54:20.184Z,28.20
2018-07-19T14:56:49.721Z,28.20
2018-07-19T14:59:19.281Z,28.10
2018-07-19T15:01:48.976Z,28.00
2018-07-19T15:04:18.573Z,28.20
2018-07-19T15:06:48.233Z,29.50
2018-07-19T15:09:17.913Z,29.60
2018-07-19T15:11:47.529Z,29.30
2018-07-19T15:14:17.238Z,29.50
2018-07-19T15:16:46.919Z,28.60
2018-07-19T15:19:16.594Z,28.00
2018-07-19T15:21:46.254Z,27.80
2018-07-19T15:24:15.881Z,28.30
2018-07-19T15:26:45.441Z,28.20
2018-07-19T15:29:14.996Z,28.80
2018-07-19T15:31:44.598Z,28.70
2018-07-19T15:34:14.166Z,28.60
2018-07-19T15:36:43.817Z,28.40
2018-07-19T15:39:13.536Z,27.60
2018-07-19T15:41:43.134Z,27.40
2018-07-19T15:44:12.697Z,27.50
2018-07-19T15:46:42.329Z,28.10
2018-07-19T15:49:11.901Z,28.00
2018-07-19T15:51:42.629Z,27.50
2018-07-19T15:54:12.211Z,26.70
2018-07-19T15:56:42.553Z,26.60
2018-07-19T15:59:12.069Z,26.60
2018-07-19T16:01:42.401Z,26.20
2018-07-19T16:04:12.230Z,25.90
2018-07-19T16:06:42.090Z,25.90
2018-07-19T16:09:12.614Z,25.50
2018-07-19T16:11:42.386Z,25.80
2018-07-19T16:14:11.973Z,25.60
2018-07-19T16:16:42.554Z,25.00
2018-07-19T16:19:12.081Z,25.10
2018-07-19T16:21:42.268Z,25.30
2018-07-19T16:24:11.865Z,27.90
2018-07-19T16:26:42.209Z,25.10
2018-07-19T16:29:11.785Z,27.00
2018-07-19T16:31:41.793Z,26.00
2018-07-19T16:34:11.365Z,26.30
2018-07-19T16:36:42.106Z,26.20
2018-07-19T16:39:11.891Z,26.20
2018-07-19T16:41:42.021Z,26.20
2018-07-19T16:44:11.624Z,25.90
2018-07-19T16:46:41.616Z,25.50
2018-07-19T16:49:11.483Z,25.70
2018-07-19T16:51:41.056Z,25.60
2018-07-19T16:54:10.681Z,25.50
2018-07-19T16:56:40.233Z,25.50
2018-07-19T16:59:09.793Z,25.50
2018-07-19T17:01:39.387Z,25.50
2018-07-19T17:04:09.022Z,25.70
2018-07-19T17:06:38.664Z,25.60
2018-07-19T17:09:09.813Z,25.80
2018-07-19T17:11:39.467Z,25.40
2018-07-19T17:14:09.163Z,25.70
2018-07-19T17:16:38.723Z,25.70
2018-07-19T17:19:08.350Z,26.20
2018-07-19T17:21:37.938Z,26.10
2018-07-19T17:24:07.537Z,26.20
2018-07-19T17:26:37.190Z,25.70
2018-07-19T17:29:06.747Z,25.40
2018-07-19T17:31:36.598Z,25.20
2018-07-19T17:34:06.183Z,24.90
2018-07-19T17:36:35.815Z,24.60
2018-07-19T17:39:08.394Z,24.60
2018-07-19T17:41:37.970Z,24.40
2018-07-19T17:44:07.520Z,24.50
2018-07-19T17:46:37.153Z,24.50
2018-07-19T17:49:07.333Z,24.20
2018-07-19T17:51:36.916Z,24.30
2018-07-19T17:54:06.805Z,24.30
2018-07-19T17:56:36.387Z,24.20
2018-07-19T17:59:06.068Z,24.10
2018-07-19T18:01:35.824Z,23.70
2018-07-19T18:04:05.399Z,23.60
2018-07-19T18:06:36.337Z,23.40
2018-07-19T18:09:07.962Z,23.20
2018-07-19T18:11:38.241Z,23.30
2018-07-19T18:14:08.386Z,23.30
2018-07-19T18:16:38.020Z,23.20
2018-07-19T18:19:07.900Z,23.20
2018-07-19T18:21:37.538Z,23.30
2018-07-19T18:24:07.169Z,23.30
2018-07-19T18:26:36.754Z,23.20
2018-07-19T18:29:06.577Z,23.10
2018-07-19T18:31:36.208Z,23.00
2018-07-19T18:34:05.943Z,23.00
2018-07-19T18:36:35.471Z,22.80
2018-07-19T18:39:08.120Z,22.70
2018-07-19T18:41:37.793Z,22.60
2018-07-19T18:44:07.599Z,22.80
2018-07-19T18:46:37.411Z,22.80
2018-07-19T18:49:06.943Z,22.90
2018-07-19T18:51:36.468Z,22.80
2018-07-19T18:54:06.077Z,22.80
2018-07-19T18:56:35.677Z,22.70
2018-07-19T18:59:05.254Z,22.70
2018-07-19T19:01:34.881Z,22.60
2018-07-19T19:04:04.785Z,22.50
2018-07-19T19:06:34.398Z,22.50
2018-07-19T19:09:06.060Z,22.30
2018-07-19T19:11:35.753Z,22.20
2018-07-19T19:14:05.642Z,22.20
2018-07-19T19:16:35.346Z,22.20
2018-07-19T19:19:04.985Z,22.20
2018-07-19T19:21:35.448Z,22.20
2018-07-19T19:24:05.130Z,22.10
2018-07-19T19:26:34.702Z,22.00
2018-07-19T19:29:04.275Z,22.00
2018-07-19T19:31:33.920Z,22.00
2018-07-19T19:34:03.463Z,21.80
2018-07-19T19:36:32.986Z,22.40
2018-07-19T19:39:02.563Z,21.60
2018-07-19T19:41:32.177Z,21.50
2018-07-19T19:44:01.847Z,21.50
2018-07-19T19:46:31.656Z,21.50
2018-07-19T19:49:01.259Z,21.40
2018-07-19T19:51:30.993Z,21.40
2018-07-19T19:54:00.576Z,21.30
2018-07-19T19:56:30.093Z,21.20
2018-07-19T19:58:59.682Z,21.10
2018-07-19T20:01:29.941Z,21.10
2018-07-19T20:03:59.498Z,21.00
2018-07-19T20:06:29.168Z,21.00
2018-07-19T20:08:58.699Z,18.70
2018-07-19T20:11:28.443Z,20.80
2018-07-19T20:13:58.118Z,20.80
2018-07-19T20:16:27.703Z,20.80
2018-07-19T20:18:57.670Z,20.80
2018-07-19T20:21:27.241Z,20.70
2018-07-19T20:23:56.808Z,20.50
2018-07-19T20:26:26.565Z,20.60
2018-07-19T20:28:56.086Z,20.50
2018-07-19T20:31:26.554Z,20.60
2018-07-19T20:33:57.960Z,20.60
2018-07-19T20:36:27.744Z,20.50
2018-07-19T20:38:58.106Z,20.50
2018-07-19T20:41:27.722Z,20.50
2018-07-19T20:43:57.776Z,20.60
2018-07-19T20:46:27.297Z,20.50
2018-07-19T20:48:57.400Z,20.50
2018-07-19T20:51:26.978Z,20.50
2018-07-19T20:53:56.727Z,20.50
2018-07-19T20:56:26.292Z,20.50
2018-07-19T20:58:55.813Z,20.40
2018-07-19T21:01:25.920Z,20.50
2018-07-19T21:03:55.476Z,20.40
2018-07-19T21:06:25.014Z,20.40
2018-07-19T21:08:54.599Z,20.40
2018-07-19T21:11:24.117Z,20.40
2018-07-19T21:13:53.800Z,20.40
2018-07-19T21:16:23.420Z,20.30
2018-07-19T21:18:52.925Z,20.30
2018-07-19T21:21:22.459Z,20.20
2018-07-19T21:23:52.077Z,20.20
2018-07-19T21:26:21.663Z,20.10
2018-07-19T21:28:51.190Z,20.10
2018-07-19T21:31:20.793Z,20.10
2018-07-19T21:33:51.431Z,20.00
2018-07-19T21:36:21.036Z,20.00
2018-07-19T21:38:50.565Z,19.90
2018-07-19T21:41:20.122Z,19.90
2018-07-19T21:43:49.734Z,20.00
2018-07-19T21:46:19.261Z,20.00
2018-07-19T21:48:48.897Z,20.00
2018-07-19T21:51:18.472Z,19.90
2018-07-19T21:53:47.977Z,20.00
2018-07-19T21:56:17.529Z,20.00
2018-07-19T21:58:47.041Z,20.00
2018-07-19T22:01:16.649Z,20.00
2018-07-19T22:03:46.233Z,20.00
2018-07-19T22:06:15.799Z,20.00
2018-07-19T22:08:45.330Z,20.00
2018-07-19T22:11:14.920Z,20.10
2018-07-19T22:13:44.442Z,20.20
2018-07-19T22:16:14.043Z,20.20
2018-07-19T22:18:43.584Z,20.20
2018-07-19T22:21:13.130Z,20.20
2018-07-19T22:23:42.654Z,20.20
2018-07-19T22:26:12.215Z,20.20
2018-07-19T22:28:41.829Z,20.20
2018-07-19T22:31:11.369Z,20.20
2018-07-19T22:33:40.894Z,20.20
2018-07-19T22:36:10.434Z,20.20
2018-07-19T22:38:39.920Z,20.10
2018-07-19T22:41:09.461Z,20.00
2018-07-19T22:43:39.036Z,20.00
2018-07-19T22:46:09.125Z,20.00
2018-07-19T22:48:38.701Z,19.90
2018-07-19T22:51:08.976Z,19.90
2018-07-19T22:53:38.493Z,19.90
2018-07-19T22:56:08.873Z,19.90
2018-07-19T22:58:38.420Z,19.80
2018-07-19T23:01:09.589Z,19.80
2018-07-19T23:03:39.121Z,19.80
2018-07-19T23:06:09.600Z,19.80
2018-07-19T23:08:39.136Z,19.80
2018-07-19T23:11:09.509Z,19.70
2018-07-19T23:13:38.996Z,19.70
2018-07-19T23:16:09.289Z,19.70
2018-07-19T23:18:38.857Z,19.70
2018-07-19T23:21:09.121Z,19.70
2018-07-19T23:23:38.704Z,19.70
2018-07-19T23:26:08.620Z,19.60
2018-07-19T23:28:38.330Z,19.70
2018-07-19T23:31:08.396Z,19.60
2018-07-19T23:33:37.994Z,19.60
2018-07-19T23:36:15.891Z,19.60
2018-07-19T23:38:50.422Z,19.50
2018-07-19T23:41:27.016Z,19.60
2018-07-19T23:44:01.866Z,19.50
2018-07-19T23:46:35.772Z,19.50
2018-07-19T23:49:06.697Z,19.50
2018-07-19T23:51:38.414Z,19.50
2018-07-19T23:54:08.701Z,19.50
2018-07-19T23:56:38.250Z,19.50
2018-07-19T23:59:08.227Z,19.50
